sensor_id;sensor_type;location;lat;lon;timestamp;pressure;altitude;pressure_sealevel;temperature;humidity
44127;BME280;29786;50.798;7.302;2023-02-14T00:00:33;101060;;;5.29;100
44127;BME280;29786;50.798;7.302;2023-02-14T00:01:33;101070;;;5.3;100
44127;BME280;29786;50.798;7.302;2023-02-14T00:02:34;101070;;;5.18;100
44127;BME280;29786;50.798;7.302;2023-02-14T00:03:33;101070;;;5.17;100
44127;BME280;29786;50.798;7.302;2023-02-14T00:04:33;101070;;;5.17;100
44127;BME280;29786;50.798;7.302;2023-02-14T00:05:33;101070;;;5.19;100
44127;BME280;29786;50.798;7.302;2023-02-14T00:06:34;101070;;;5.11;100
44127;BME280;29786;50.798;7.302;2023-02-14T00:07:34;101070;;;5.09;100
44127;BME280;29786;50.798;7.302;2023-02-14T00:08:32;101070;;;5.04;100
44127;BME280;29786;50.798;7.302;2023-02-14T00:09:33;101070;;;5.04;100
44127;BME280;29786;50.798;7.302;2023-02-14T00:10:32;101070;;;4.91;100
44127;BME280;29786;50.798;7.302;2023-02-14T00:11:33;101070;;;4.92;100
44127;BME280;29786;50.798;7.302;2023-02-14T00:12:33;101070;;;4.96;100
44127;BME280;29786;50.798;7.302;2023-02-14T00:13:33;101070;;;4.96;100
44127;BME280;29786;50.798;7.302;2023-02-14T00:14:33;101070;;;5.05;100
44127;BME280;29786;50.798;7.302;2023-02-14T00:15:33;101070;;;5.01;100
44127;BME280;29786;50.798;7.302;2023-02-14T00:16:33;101070;;;4.94;100
44127;BME280;29786;50.798;7.302;2023-02-14T00:17:33;101070;;;4.91;100
44127;BME280;29786;50.798;7.302;2023-02-14T00:18:33;101070;;;4.86;100
44127;BME280;29786;50.798;7.302;2023-02-14T00:19:33;101070;;;4.77;100
44127;BME280;29786;50.798;7.302;2023-02-14T00:20:33;101070;;;4.71;100
44127;BME280;29786;50.798;7.302;2023-02-14T00:21:34;101070;;;4.78;100
44127;BME280;29786;50.798;7.302;2023-02-14T00:22:33;101060;;;4.85;100
44127;BME280;29786;50.798;7.302;2023-02-14T00:23:33;101070;;;4.71;100
44127;BME280;29786;50.798;7.302;2023-02-14T00:24:33;101070;;;4.64;100
44127;BME280;29786;50.798;7.302;2023-02-14T00:25:33;101070;;;4.67;100
44127;BME280;29786;50.798;7.302;2023-02-14T00:26:34;101070;;;4.66;100
44127;BME280;29786;50.798;7.302;2023-02-14T00:27:33;101070;;;4.64;100
44127;BME280;29786;50.798;7.302;2023-02-14T00:28:34;101070;;;4.58;100
44127;BME280;29786;50.798;7.302;2023-02-14T00:29:34;101070;;;4.61;100
44127;BME280;29786;50.798;7.302;2023-02-14T00:30:34;101070;;;4.54;100
44127;BME280;29786;50.798;7.302;2023-02-14T00:31:33;101070;;;4.42;100
44127;BME280;29786;50.798;7.302;2023-02-14T00:32:32;101070;;;4.35;100
44127;BME280;29786;50.798;7.302;2023-02-14T00:33:33;101070;;;4.44;100
44127;BME280;29786;50.798;7.302;2023-02-14T00:34:34;101070;;;4.42;100
44127;BME280;29786;50.798;7.302;2023-02-14T00:35:36;101080;;;4.46;100
44127;BME280;29786;50.798;7.302;2023-02-14T00:36:34;101080;;;4.33;100
44127;BME280;29786;50.798;7.302;2023-02-14T00:37:34;101080;;;4.3;100
44127;BME280;29786;50.798;7.302;2023-02-14T00:38:35;101080;;;4.25;100
44127;BME280;29786;50.798;7.302;2023-02-14T00:39:33;101080;;;4.21;100
44127;BME280;29786;50.798;7.302;2023-02-14T00:40:33;101080;;;4.17;100
44127;BME280;29786;50.798;7.302;2023-02-14T00:41:33;101080;;;4.25;100
44127;BME280;29786;50.798;7.302;2023-02-14T00:42:34;101070;;;4.25;100
44127;BME280;29786;50.798;7.302;2023-02-14T00:43:34;101070;;;4.31;100
44127;BME280;29786;50.798;7.302;2023-02-14T00:44:34;101070;;;4.37;100
44127;BME280;29786;50.798;7.302;2023-02-14T00:45:33;101070;;;4.38;100
44127;BME280;29786;50.798;7.302;2023-02-14T00:46:33;101070;;;4.46;100
44127;BME280;29786;50.798;7.302;2023-02-14T00:47:34;101080;;;4.5;100
44127;BME280;29786;50.798;7.302;2023-02-14T00:48:33;101060;;;4.57;100
44127;BME280;29786;50.798;7.302;2023-02-14T00:49:34;101070;;;4.55;100
44127;BME280;29786;50.798;7.302;2023-02-14T00:50:34;101070;;;4.62;100
44127;BME280;29786;50.798;7.302;2023-02-14T00:51:33;101060;;;4.66;100
44127;BME280;29786;50.798;7.302;2023-02-14T00:52:34;101060;;;4.66;100
44127;BME280;29786;50.798;7.302;2023-02-14T00:53:34;101060;;;4.67;100
44127;BME280;29786;50.798;7.302;2023-02-14T00:54:33;101060;;;4.69;100
44127;BME280;29786;50.798;7.302;2023-02-14T00:55:33;101060;;;4.67;100
44127;BME280;29786;50.798;7.302;2023-02-14T00:56:35;101060;;;4.75;100
44127;BME280;29786;50.798;7.302;2023-02-14T00:57:33;101060;;;4.75;100
44127;BME280;29786;50.798;7.302;2023-02-14T00:58:36;101060;;;4.69;100
44127;BME280;29786;50.798;7.302;2023-02-14T00:59:33;101050;;;4.6;100
44127;BME280;29786;50.798;7.302;2023-02-14T01:00:33;101050;;;4.56;100
44127;BME280;29786;50.798;7.302;2023-02-14T01:01:33;101050;;;4.53;100
44127;BME280;29786;50.798;7.302;2023-02-14T01:02:33;101050;;;4.52;100
44127;BME280;29786;50.798;7.302;2023-02-14T01:03:34;101050;;;4.52;100
44127;BME280;29786;50.798;7.302;2023-02-14T01:04:33;101050;;;4.44;100
44127;BME280;29786;50.798;7.302;2023-02-14T01:05:34;101050;;;4.37;100
44127;BME280;29786;50.798;7.302;2023-02-14T01:06:33;101060;;;4.4;100
44127;BME280;29786;50.798;7.302;2023-02-14T01:07:33;101060;;;4.42;100
44127;BME280;29786;50.798;7.302;2023-02-14T01:08:34;101060;;;4.46;100
44127;BME280;29786;50.798;7.302;2023-02-14T01:09:34;101060;;;4.38;100
44127;BME280;29786;50.798;7.302;2023-02-14T01:10:35;101060;;;4.42;100
44127;BME280;29786;50.798;7.302;2023-02-14T01:11:34;101060;;;4.52;100
44127;BME280;29786;50.798;7.302;2023-02-14T01:12:33;101060;;;4.48;100
44127;BME280;29786;50.798;7.302;2023-02-14T01:13:33;101060;;;4.56;100
44127;BME280;29786;50.798;7.302;2023-02-14T01:14:33;101070;;;4.58;100
44127;BME280;29786;50.798;7.302;2023-02-14T01:15:37;101060;;;4.65;100
44127;BME280;29786;50.798;7.302;2023-02-14T01:16:34;101060;;;4.69;100
44127;BME280;29786;50.798;7.302;2023-02-14T01:18:34;101060;;;4.56;100
44127;BME280;29786;50.798;7.302;2023-02-14T01:19:33;101060;;;4.54;100
44127;BME280;29786;50.798;7.302;2023-02-14T01:20:33;101060;;;4.56;100
44127;BME280;29786;50.798;7.302;2023-02-14T01:21:34;101060;;;4.58;100
44127;BME280;29786;50.798;7.302;2023-02-14T01:22:34;101060;;;4.53;100
44127;BME280;29786;50.798;7.302;2023-02-14T01:23:33;101060;;;4.6;100
44127;BME280;29786;50.798;7.302;2023-02-14T01:24:33;101060;;;4.62;100
44127;BME280;29786;50.798;7.302;2023-02-14T01:25:34;101050;;;4.63;100
44127;BME280;29786;50.798;7.302;2023-02-14T01:26:33;101050;;;4.63;100
44127;BME280;29786;50.798;7.302;2023-02-14T01:27:33;101060;;;4.56;100
44127;BME280;29786;50.798;7.302;2023-02-14T01:28:34;101050;;;4.48;100
44127;BME280;29786;50.798;7.302;2023-02-14T01:29:34;101060;;;4.59;100
44127;BME280;29786;50.798;7.302;2023-02-14T01:30:33;101060;;;4.61;100
44127;BME280;29786;50.798;7.302;2023-02-14T01:31:34;101060;;;4.58;100
44127;BME280;29786;50.798;7.302;2023-02-14T01:32:33;101060;;;4.59;100
44127;BME280;29786;50.798;7.302;2023-02-14T01:33:33;101060;;;4.51;100
44127;BME280;29786;50.798;7.302;2023-02-14T01:34:33;101060;;;4.51;100
44127;BME280;29786;50.798;7.302;2023-02-14T01:35:36;101060;;;4.5;100
44127;BME280;29786;50.798;7.302;2023-02-14T01:36:36;101060;;;4.59;100
44127;BME280;29786;50.798;7.302;2023-02-14T01:37:34;101070;;;4.5;100
44127;BME280;29786;50.798;7.302;2023-02-14T01:38:33;101060;;;4.52;100
44127;BME280;29786;50.798;7.302;2023-02-14T01:39:32;101060;;;4.53;100
44127;BME280;29786;50.798;7.302;2023-02-14T01:40:38;101060;;;4.58;100
44127;BME280;29786;50.798;7.302;2023-02-14T01:41:34;101050;;;4.54;100
44127;BME280;29786;50.798;7.302;2023-02-14T01:42:34;101060;;;4.6;100
44127;BME280;29786;50.798;7.302;2023-02-14T01:43:50;101050;;;4.56;100
44127;BME280;29786;50.798;7.302;2023-02-14T01:45:33;101050;;;4.59;100
44127;BME280;29786;50.798;7.302;2023-02-14T01:46:34;101050;;;4.56;100
44127;BME280;29786;50.798;7.302;2023-02-14T01:47:35;101050;;;4.46;100
44127;BME280;29786;50.798;7.302;2023-02-14T01:48:34;101050;;;4.42;100
44127;BME280;29786;50.798;7.302;2023-02-14T01:49:36;101050;;;4.42;100
44127;BME280;29786;50.798;7.302;2023-02-14T01:50:34;101050;;;4.42;100
44127;BME280;29786;50.798;7.302;2023-02-14T01:51:34;101050;;;4.38;100
44127;BME280;29786;50.798;7.302;2023-02-14T01:52:34;101050;;;4.34;100
44127;BME280;29786;50.798;7.302;2023-02-14T01:53:33;101050;;;4.31;100
44127;BME280;29786;50.798;7.302;2023-02-14T01:54:34;101050;;;4.19;100
44127;BME280;29786;50.798;7.302;2023-02-14T01:55:34;101050;;;4.23;100
44127;BME280;29786;50.798;7.302;2023-02-14T01:56:37;101050;;;4.26;100
44127;BME280;29786;50.798;7.302;2023-02-14T01:57:35;101040;;;4.23;100
44127;BME280;29786;50.798;7.302;2023-02-14T01:58:33;101040;;;4.09;100
44127;BME280;29786;50.798;7.302;2023-02-14T01:59:35;101050;;;4.08;100
44127;BME280;29786;50.798;7.302;2023-02-14T02:00:34;101050;;;4.02;100
44127;BME280;29786;50.798;7.302;2023-02-14T02:01:33;101040;;;4.06;100
44127;BME280;29786;50.798;7.302;2023-02-14T02:02:33;101040;;;4.07;100
44127;BME280;29786;50.798;7.302;2023-02-14T02:03:36;101040;;;4.07;100
44127;BME280;29786;50.798;7.302;2023-02-14T02:04:35;101040;;;4.1;100
44127;BME280;29786;50.798;7.302;2023-02-14T02:05:35;101040;;;4.11;100
44127;BME280;29786;50.798;7.302;2023-02-14T02:06:36;101040;;;4.09;100
44127;BME280;29786;50.798;7.302;2023-02-14T02:07:33;101040;;;4.03;100
44127;BME280;29786;50.798;7.302;2023-02-14T02:08:33;101040;;;3.96;100
44127;BME280;29786;50.798;7.302;2023-02-14T02:09:34;101040;;;3.91;100
44127;BME280;29786;50.798;7.302;2023-02-14T02:10:34;101040;;;3.9;100
44127;BME280;29786;50.798;7.302;2023-02-14T02:11:33;101040;;;3.85;100
44127;BME280;29786;50.798;7.302;2023-02-14T02:12:33;101040;;;3.8;100
44127;BME280;29786;50.798;7.302;2023-02-14T02:13:33;101040;;;3.83;100
44127;BME280;29786;50.798;7.302;2023-02-14T02:14:33;101040;;;3.79;100
44127;BME280;29786;50.798;7.302;2023-02-14T02:15:35;101030;;;3.79;100
44127;BME280;29786;50.798;7.302;2023-02-14T02:16:40;101030;;;3.71;100
44127;BME280;29786;50.798;7.302;2023-02-14T02:18:37;101030;;;3.82;100
44127;BME280;29786;50.798;7.302;2023-02-14T02:19:41;101040;;;3.76;100
44127;BME280;29786;50.798;7.302;2023-02-14T02:20:55;101030;;;3.71;100
44127;BME280;29786;50.798;7.302;2023-02-14T02:21:48;101040;;;3.78;100
44127;BME280;29786;50.798;7.302;2023-02-14T02:25:42;101040;;;3.87;100
44127;BME280;29786;50.798;7.302;2023-02-14T02:27:37;101040;;;3.88;100
44127;BME280;29786;50.798;7.302;2023-02-14T02:28:48;101040;;;3.87;100
44127;BME280;29786;50.798;7.302;2023-02-14T02:30:38;101030;;;3.97;100
44127;BME280;29786;50.798;7.302;2023-02-14T02:31:37;101030;;;3.98;100
44127;BME280;29786;50.798;7.302;2023-02-14T02:33:42;101030;;;3.92;100
44127;BME280;29786;50.798;7.302;2023-02-14T02:34:27;101030;;;3.94;100
44127;BME280;29786;50.798;7.302;2023-02-14T02:34:42;101030;;;3.97;100
44127;BME280;29786;50.798;7.302;2023-02-14T02:35:37;101030;;;3.96;100
44127;BME280;29786;50.798;7.302;2023-02-14T02:37:41;101030;;;3.98;100
44127;BME280;29786;50.798;7.302;2023-02-14T02:38:39;101030;;;3.94;100
44127;BME280;29786;50.798;7.302;2023-02-14T02:40:39;101030;;;3.91;100
44127;BME280;29786;50.798;7.302;2023-02-14T02:41:42;101030;;;3.83;100
44127;BME280;29786;50.798;7.302;2023-02-14T02:42:38;101030;;;3.8;100
44127;BME280;29786;50.798;7.302;2023-02-14T02:43:37;101030;;;3.87;100
44127;BME280;29786;50.798;7.302;2023-02-14T02:44:40;101030;;;3.83;100
44127;BME280;29786;50.798;7.302;2023-02-14T02:45:37;101030;;;3.8;100
44127;BME280;29786;50.798;7.302;2023-02-14T02:46:35;101020;;;3.82;100
44127;BME280;29786;50.798;7.302;2023-02-14T02:47:37;101030;;;3.67;100
44127;BME280;29786;50.798;7.302;2023-02-14T02:48:35;101020;;;3.72;100
44127;BME280;29786;50.798;7.302;2023-02-14T02:49:38;101030;;;3.73;100
44127;BME280;29786;50.798;7.302;2023-02-14T02:50:38;101030;;;3.75;100
44127;BME280;29786;50.798;7.302;2023-02-14T02:51:36;101030;;;3.8;100
44127;BME280;29786;50.798;7.302;2023-02-14T02:53:25;101020;;;3.81;100
44127;BME280;29786;50.798;7.302;2023-02-14T02:53:38;101020;;;3.8;100
44127;BME280;29786;50.798;7.302;2023-02-14T02:54:36;101030;;;3.83;100
44127;BME280;29786;50.798;7.302;2023-02-14T02:56:34;101020;;;3.81;100
44127;BME280;29786;50.798;7.302;2023-02-14T02:56:40;101020;;;3.79;100
44127;BME280;29786;50.798;7.302;2023-02-14T02:57:34;101020;;;3.86;100
44127;BME280;29786;50.798;7.302;2023-02-14T02:58:35;101020;;;3.85;100
44127;BME280;29786;50.798;7.302;2023-02-14T02:59:34;101020;;;3.84;100
44127;BME280;29786;50.798;7.302;2023-02-14T03:00:33;101020;;;3.87;100
44127;BME280;29786;50.798;7.302;2023-02-14T03:01:35;101020;;;3.85;100
44127;BME280;29786;50.798;7.302;2023-02-14T03:02:34;101020;;;3.86;100
44127;BME280;29786;50.798;7.302;2023-02-14T03:03:34;101020;;;3.77;100
44127;BME280;29786;50.798;7.302;2023-02-14T03:04:34;101020;;;3.76;100
44127;BME280;29786;50.798;7.302;2023-02-14T03:05:33;101020;;;3.79;100
44127;BME280;29786;50.798;7.302;2023-02-14T03:06:34;101020;;;3.85;100
44127;BME280;29786;50.798;7.302;2023-02-14T03:07:33;101020;;;3.92;100
44127;BME280;29786;50.798;7.302;2023-02-14T03:08:33;101020;;;3.9;100
44127;BME280;29786;50.798;7.302;2023-02-14T03:09:51;101020;;;3.93;100
44127;BME280;29786;50.798;7.302;2023-02-14T03:10:34;101020;;;3.92;100
44127;BME280;29786;50.798;7.302;2023-02-14T03:11:33;101020;;;3.91;100
44127;BME280;29786;50.798;7.302;2023-02-14T03:12:38;101030;;;3.93;100
44127;BME280;29786;50.798;7.302;2023-02-14T03:13:41;101020;;;3.87;100
44127;BME280;29786;50.798;7.302;2023-02-14T03:14:35;101020;;;3.86;100
44127;BME280;29786;50.798;7.302;2023-02-14T03:15:38;101020;;;3.86;100
44127;BME280;29786;50.798;7.302;2023-02-14T03:17:09;101020;;;3.87;100
44127;BME280;29786;50.798;7.302;2023-02-14T03:17:35;101020;;;3.87;100
44127;BME280;29786;50.798;7.302;2023-02-14T03:19:00;101020;;;3.78;100
44127;BME280;29786;50.798;7.302;2023-02-14T03:19:36;101020;;;3.86;100
44127;BME280;29786;50.798;7.302;2023-02-14T03:20:38;101020;;;3.9;100
44127;BME280;29786;50.798;7.302;2023-02-14T03:21:36;101020;;;3.91;100
44127;BME280;29786;50.798;7.302;2023-02-14T03:22:38;101020;;;3.9;100
44127;BME280;29786;50.798;7.302;2023-02-14T03:23:37;101020;;;3.86;100
44127;BME280;29786;50.798;7.302;2023-02-14T03:24:43;101020;;;3.88;100
44127;BME280;29786;50.798;7.302;2023-02-14T03:25:37;101020;;;3.85;100
44127;BME280;29786;50.798;7.302;2023-02-14T03:26:36;101020;;;3.87;100
44127;BME280;29786;50.798;7.302;2023-02-14T03:27:36;101020;;;3.88;100
44127;BME280;29786;50.798;7.302;2023-02-14T03:28:37;101020;;;3.91;100
44127;BME280;29786;50.798;7.302;2023-02-14T03:29:54;101020;;;3.92;100
44127;BME280;29786;50.798;7.302;2023-02-14T03:30:35;101020;;;3.91;100
44127;BME280;29786;50.798;7.302;2023-02-14T03:31:35;101030;;;3.91;100
44127;BME280;29786;50.798;7.302;2023-02-14T03:33:36;101030;;;3.92;100
44127;BME280;29786;50.798;7.302;2023-02-14T03:34:34;101020;;;3.88;100
44127;BME280;29786;50.798;7.302;2023-02-14T03:35:44;101030;;;3.8;100
44127;BME280;29786;50.798;7.302;2023-02-14T03:36:34;101030;;;3.82;100
44127;BME280;29786;50.798;7.302;2023-02-14T03:37:37;101030;;;3.82;100
44127;BME280;29786;50.798;7.302;2023-02-14T03:38:35;101030;;;3.81;100
44127;BME280;29786;50.798;7.302;2023-02-14T03:39:38;101030;;;3.81;100
44127;BME280;29786;50.798;7.302;2023-02-14T03:40:40;101030;;;3.69;100
44127;BME280;29786;50.798;7.302;2023-02-14T03:41:36;101030;;;3.73;100
44127;BME280;29786;50.798;7.302;2023-02-14T03:42:35;101030;;;3.67;100
44127;BME280;29786;50.798;7.302;2023-02-14T03:43:36;101030;;;3.6;100
44127;BME280;29786;50.798;7.302;2023-02-14T03:44:33;101030;;;3.57;100
44127;BME280;29786;50.798;7.302;2023-02-14T03:45:40;101030;;;3.6;100
44127;BME280;29786;50.798;7.302;2023-02-14T03:46:36;101030;;;3.6;100
44127;BME280;29786;50.798;7.302;2023-02-14T03:47:33;101030;;;3.53;100
44127;BME280;29786;50.798;7.302;2023-02-14T03:48:33;101030;;;3.52;100
44127;BME280;29786;50.798;7.302;2023-02-14T03:49:35;101030;;;3.54;100
44127;BME280;29786;50.798;7.302;2023-02-14T03:50:33;101030;;;3.49;100
44127;BME280;29786;50.798;7.302;2023-02-14T03:51:33;101030;;;3.5;100
44127;BME280;29786;50.798;7.302;2023-02-14T03:52:33;101030;;;3.51;100
44127;BME280;29786;50.798;7.302;2023-02-14T03:53:33;101030;;;3.53;100
44127;BME280;29786;50.798;7.302;2023-02-14T03:54:34;101030;;;3.43;100
44127;BME280;29786;50.798;7.302;2023-02-14T03:55:36;101030;;;3.41;100
44127;BME280;29786;50.798;7.302;2023-02-14T03:56:35;101030;;;3.44;100
44127;BME280;29786;50.798;7.302;2023-02-14T03:57:37;101030;;;3.57;100
44127;BME280;29786;50.798;7.302;2023-02-14T03:58:35;101030;;;3.63;100
44127;BME280;29786;50.798;7.302;2023-02-14T03:59:33;101020;;;3.55;100
44127;BME280;29786;50.798;7.302;2023-02-14T04:00:34;101020;;;3.5;100
44127;BME280;29786;50.798;7.302;2023-02-14T04:01:35;101020;;;3.56;100
44127;BME280;29786;50.798;7.302;2023-02-14T04:02:36;101020;;;3.58;100
44127;BME280;29786;50.798;7.302;2023-02-14T04:03:33;101020;;;3.59;100
44127;BME280;29786;50.798;7.302;2023-02-14T04:04:35;101020;;;3.57;100
44127;BME280;29786;50.798;7.302;2023-02-14T04:05:34;101020;;;3.58;100
44127;BME280;29786;50.798;7.302;2023-02-14T04:06:33;101020;;;3.5;100
44127;BME280;29786;50.798;7.302;2023-02-14T04:07:42;101020;;;3.48;100
44127;BME280;29786;50.798;7.302;2023-02-14T04:08:33;101020;;;3.46;100
44127;BME280;29786;50.798;7.302;2023-02-14T04:09:33;101020;;;3.51;100
44127;BME280;29786;50.798;7.302;2023-02-14T04:10:33;101020;;;3.56;100
44127;BME280;29786;50.798;7.302;2023-02-14T04:11:34;101020;;;3.53;100
44127;BME280;29786;50.798;7.302;2023-02-14T04:12:33;101020;;;3.46;100
44127;BME280;29786;50.798;7.302;2023-02-14T04:13:34;101020;;;3.46;100
44127;BME280;29786;50.798;7.302;2023-02-14T04:14:34;101020;;;3.47;100
44127;BME280;29786;50.798;7.302;2023-02-14T04:15:33;101010;;;3.47;100
44127;BME280;29786;50.798;7.302;2023-02-14T04:16:34;101020;;;3.46;100
44127;BME280;29786;50.798;7.302;2023-02-14T04:17:34;101020;;;3.49;100
44127;BME280;29786;50.798;7.302;2023-02-14T04:18:33;101010;;;3.47;100
44127;BME280;29786;50.798;7.302;2023-02-14T04:19:33;101020;;;3.45;100
44127;BME280;29786;50.798;7.302;2023-02-14T04:20:33;101010;;;3.47;100
44127;BME280;29786;50.798;7.302;2023-02-14T04:21:33;101020;;;3.51;100
44127;BME280;29786;50.798;7.302;2023-02-14T04:22:34;101010;;;3.38;100
44127;BME280;29786;50.798;7.302;2023-02-14T04:23:33;101010;;;3.37;100
44127;BME280;29786;50.798;7.302;2023-02-14T04:24:33;101010;;;3.28;100
44127;BME280;29786;50.798;7.302;2023-02-14T04:25:33;101010;;;3.34;100
44127;BME280;29786;50.798;7.302;2023-02-14T04:26:34;101020;;;3.36;100
44127;BME280;29786;50.798;7.302;2023-02-14T04:27:33;101010;;;3.32;100
44127;BME280;29786;50.798;7.302;2023-02-14T04:28:34;101020;;;3.33;100
44127;BME280;29786;50.798;7.302;2023-02-14T04:29:35;101020;;;3.31;100
44127;BME280;29786;50.798;7.302;2023-02-14T04:30:34;101010;;;3.22;100
44127;BME280;29786;50.798;7.302;2023-02-14T04:31:33;101010;;;3.22;100
44127;BME280;29786;50.798;7.302;2023-02-14T04:32:33;101010;;;3.2;100
44127;BME280;29786;50.798;7.302;2023-02-14T04:33:33;101010;;;3.21;100
44127;BME280;29786;50.798;7.302;2023-02-14T04:34:33;101010;;;3.22;100
44127;BME280;29786;50.798;7.302;2023-02-14T04:35:34;101010;;;3.22;100
44127;BME280;29786;50.798;7.302;2023-02-14T04:36:33;101010;;;3.23;100
44127;BME280;29786;50.798;7.302;2023-02-14T04:37:34;101010;;;3.21;100
44127;BME280;29786;50.798;7.302;2023-02-14T04:38:33;101010;;;3.18;100
44127;BME280;29786;50.798;7.302;2023-02-14T04:39:33;101000;;;3.16;100
44127;BME280;29786;50.798;7.302;2023-02-14T04:40:34;101000;;;3.14;100
44127;BME280;29786;50.798;7.302;2023-02-14T04:41:33;101000;;;3.1;100
44127;BME280;29786;50.798;7.302;2023-02-14T04:42:33;101000;;;3.12;100
44127;BME280;29786;50.798;7.302;2023-02-14T04:43:34;101000;;;3.09;100
44127;BME280;29786;50.798;7.302;2023-02-14T04:44:33;101000;;;3.06;100
44127;BME280;29786;50.798;7.302;2023-02-14T04:45:33;101010;;;3.06;100
44127;BME280;29786;50.798;7.302;2023-02-14T04:46:33;101000;;;3.07;100
44127;BME280;29786;50.798;7.302;2023-02-14T04:47:33;101000;;;3.09;100
44127;BME280;29786;50.798;7.302;2023-02-14T04:48:33;101010;;;3.03;100
44127;BME280;29786;50.798;7.302;2023-02-14T04:49:34;101000;;;3.07;100
44127;BME280;29786;50.798;7.302;2023-02-14T04:50:34;101010;;;3.02;100
44127;BME280;29786;50.798;7.302;2023-02-14T04:51:33;101010;;;3.03;100
44127;BME280;29786;50.798;7.302;2023-02-14T04:52:33;101010;;;3.05;100
44127;BME280;29786;50.798;7.302;2023-02-14T04:53:33;101010;;;3.05;100
44127;BME280;29786;50.798;7.302;2023-02-14T04:54:33;101000;;;3.02;100
44127;BME280;29786;50.798;7.302;2023-02-14T04:55:34;101000;;;3.07;100
44127;BME280;29786;50.798;7.302;2023-02-14T04:56:34;101000;;;3.07;100
44127;BME280;29786;50.798;7.302;2023-02-14T04:57:33;101000;;;3.06;100
44127;BME280;29786;50.798;7.302;2023-02-14T04:58:33;101000;;;3.15;100
44127;BME280;29786;50.798;7.302;2023-02-14T04:59:33;101000;;;3.17;100
44127;BME280;29786;50.798;7.302;2023-02-14T05:00:32;101000;;;3.17;100
44127;BME280;29786;50.798;7.302;2023-02-14T05:01:33;101000;;;3.14;100
44127;BME280;29786;50.798;7.302;2023-02-14T05:02:33;101000;;;3.08;100
44127;BME280;29786;50.798;7.302;2023-02-14T05:03:34;100990;;;3.05;100
44127;BME280;29786;50.798;7.302;2023-02-14T05:04:34;100990;;;3.12;100
44127;BME280;29786;50.798;7.302;2023-02-14T05:05:34;100990;;;3.14;100
44127;BME280;29786;50.798;7.302;2023-02-14T05:06:33;100990;;;3.11;100
44127;BME280;29786;50.798;7.302;2023-02-14T05:07:33;100990;;;3.07;100
44127;BME280;29786;50.798;7.302;2023-02-14T05:08:33;100990;;;3.14;100
44127;BME280;29786;50.798;7.302;2023-02-14T05:09:33;100990;;;3.14;100
44127;BME280;29786;50.798;7.302;2023-02-14T05:10:33;100990;;;3.13;100
44127;BME280;29786;50.798;7.302;2023-02-14T05:11:33;100990;;;3.13;100
44127;BME280;29786;50.798;7.302;2023-02-14T05:12:33;100990;;;3.12;100
44127;BME280;29786;50.798;7.302;2023-02-14T05:13:34;100990;;;3.13;100
44127;BME280;29786;50.798;7.302;2023-02-14T05:14:33;100990;;;3.12;100
44127;BME280;29786;50.798;7.302;2023-02-14T05:15:33;100990;;;3.09;100
44127;BME280;29786;50.798;7.302;2023-02-14T05:16:34;100990;;;3.09;100
44127;BME280;29786;50.798;7.302;2023-02-14T05:17:34;100990;;;3.08;100
44127;BME280;29786;50.798;7.302;2023-02-14T05:18:34;100990;;;3.09;100
44127;BME280;29786;50.798;7.302;2023-02-14T05:19:34;100990;;;3.03;100
44127;BME280;29786;50.798;7.302;2023-02-14T05:20:33;100990;;;3.01;100
44127;BME280;29786;50.798;7.302;2023-02-14T05:21:33;100980;;;2.99;100
44127;BME280;29786;50.798;7.302;2023-02-14T05:22:32;100980;;;2.99;100
44127;BME280;29786;50.798;7.302;2023-02-14T05:23:34;100980;;;3.04;100
44127;BME280;29786;50.798;7.302;2023-02-14T05:24:34;100980;;;3.01;100
44127;BME280;29786;50.798;7.302;2023-02-14T05:25:33;100980;;;2.95;100
44127;BME280;29786;50.798;7.302;2023-02-14T05:26:33;100980;;;3.03;100
44127;BME280;29786;50.798;7.302;2023-02-14T05:27:33;100980;;;3.03;100
44127;BME280;29786;50.798;7.302;2023-02-14T05:28:33;100980;;;3.08;100
44127;BME280;29786;50.798;7.302;2023-02-14T05:29:33;100980;;;3.08;100
44127;BME280;29786;50.798;7.302;2023-02-14T05:30:33;100980;;;3.02;100
44127;BME280;29786;50.798;7.302;2023-02-14T05:31:33;100980;;;3.02;100
44127;BME280;29786;50.798;7.302;2023-02-14T05:32:34;100980;;;3.1;100
44127;BME280;29786;50.798;7.302;2023-02-14T05:33:34;100980;;;3.1;100
44127;BME280;29786;50.798;7.302;2023-02-14T05:34:33;100980;;;3.15;100
44127;BME280;29786;50.798;7.302;2023-02-14T05:35:33;100980;;;3.11;100
44127;BME280;29786;50.798;7.302;2023-02-14T05:36:33;100980;;;3.09;100
44127;BME280;29786;50.798;7.302;2023-02-14T05:37:34;100980;;;3.16;100
44127;BME280;29786;50.798;7.302;2023-02-14T05:38:34;100980;;;3.12;100
44127;BME280;29786;50.798;7.302;2023-02-14T05:39:34;100980;;;3.04;100
44127;BME280;29786;50.798;7.302;2023-02-14T05:40:34;100980;;;3.1;100
44127;BME280;29786;50.798;7.302;2023-02-14T05:41:34;100980;;;3.08;100
44127;BME280;29786;50.798;7.302;2023-02-14T05:42:34;100980;;;2.99;100
44127;BME280;29786;50.798;7.302;2023-02-14T05:43:34;100980;;;2.94;100
44127;BME280;29786;50.798;7.302;2023-02-14T05:44:33;100980;;;2.95;100
44127;BME280;29786;50.798;7.302;2023-02-14T05:45:33;100990;;;2.96;100
44127;BME280;29786;50.798;7.302;2023-02-14T05:46:33;100990;;;2.96;100
44127;BME280;29786;50.798;7.302;2023-02-14T05:47:33;100990;;;2.93;100
44127;BME280;29786;50.798;7.302;2023-02-14T05:48:33;100980;;;2.94;100
44127;BME280;29786;50.798;7.302;2023-02-14T05:49:34;100980;;;2.93;100
44127;BME280;29786;50.798;7.302;2023-02-14T05:50:33;100990;;;2.9;100
44127;BME280;29786;50.798;7.302;2023-02-14T05:51:33;100990;;;2.85;100